This is the latest recevied weather packets stored in our database for station/object KG0HG. If no packets are shown the sender has not sent any weather packets the latest 10 day(s).
| Time | Temp. | Humidity | Pressure | Rain* | Wind** | Luminosity | Snow |
|---|---|---|---|---|---|---|---|
| 1777384794 | 10° C | 80% | 1018.8 hPa | 0 mm | - | 49 W/m² | - |
| 1777384491 | 10° C | 79% | 1018.7 hPa | 0 mm | - | 42 W/m² | - |
| 1777384185 | 10° C | 80% | 1018.6 hPa | 0 mm | - | 41 W/m² | - |
| 1777383882 | 9.44° C | 80% | 1018.4 hPa | 0 mm | - | 40 W/m² | - |
| 1777383578 | 9.44° C | 80% | 1018.7 hPa | 0 mm | - | 35 W/m² | - |
| 1777383275 | 9.44° C | 80% | 1018.7 hPa | 0 mm | - | 30 W/m² | - |
| 1777382971 | 9.44° C | 80% | 1018.8 hPa | 0 mm | - | 27 W/m² | - |
| 1777382667 | 9.44° C | 80% | 1018.5 hPa | 0 mm | - | 25 W/m² | - |
| 1777382363 | 9.44° C | 80% | 1018.6 hPa | 0 mm | - | 22 W/m² | - |
| 1777382059 | 9.44° C | 80% | 1018.6 hPa | 0 mm | - | 20 W/m² | - |
| 1777381755 | 9.44° C | 80% | 1018.5 hPa | 0 mm | - | 22 W/m² | - |
| 1777381450 | 9.44° C | 80% | 1018.5 hPa | 0 mm | - | 23 W/m² | - |
| 1777381146 | 9.44° C | 80% | 1018.2 hPa | 0 mm | - | 24 W/m² | - |
| 1777380843 | 9.44° C | 80% | 1018.2 hPa | 0 mm | - | 25 W/m² | - |
| 1777380540 | 9.44° C | 80% | 1018.6 hPa | 0 mm | - | 21 W/m² | - |
| 1777380236 | 9.44° C | 80% | 1018.2 hPa | 0 mm | - | 20 W/m² | - |
| 1777379932 | 9.44° C | 80% | 1018.4 hPa | 0 mm | - | 13 W/m² | - |
| 1777379628 | 9.44° C | 80% | 1018.3 hPa | 0 mm | - | 13 W/m² | - |
| 1777379324 | 9.44° C | 80% | 1018 hPa | 0 mm | - | 11 W/m² | - |
| 1777379018 | 9.44° C | 80% | 1017.8 hPa | 0 mm | - | 10 W/m² | - |
| 1777378714 | 9.44° C | 80% | 1017.6 hPa | 0 mm | - | 10 W/m² | - |
| 1777378411 | 9.44° C | 80% | 1017.9 hPa | 0 mm | - | 6 W/m² | - |
| 1777378105 | 9.44° C | 80% | 1017.5 hPa | 0 mm | - | 6 W/m² | - |
| 1777377800 | 9.44° C | 80% | 1017.6 hPa | 0 mm | - | 6 W/m² | - |
| 1777377495 | 9.44° C | 80% | 1017.6 hPa | 0 mm | - | 4 W/m² | - |
* Rain latest hour (hover to see other rain measurements)
** Current wind speed in m/s (hover to see current wind gust speed)